THY7734 LTFJ-EDDF
Flight info
| Callsign | THY7734 |
|---|---|
| Flight time | 2h 46m |
| Altitude | 34000 |
| Route | VADEN N618 BAKLO DCT XANEX DCT BESLI DCT UTEKA DCT BABIT DCT GOTAR DCT ABRUK DCT SIMBA DCT AKINI T161 DEBHI DEBHI1C |
| Aircraft | A321/M-SDE3FGHIRWY/LB1 |
Departure
| Time | 2026-05-07 21:59 |
|---|---|
| Airport | Istanbul Sabiha Gökçen International Airport (LTFJ) |
Arrival
| Time | 2026-05-08 00:45 |
|---|---|
| Airport | Frankfurt Main Airport (EDDF) |
| Time | Latitude | Longitude | Altitude | Speed | Heading |
|---|---|---|---|---|---|
| 2026-05-07 21:13 | 40.90678 | 29.31764 | 311 ft | 0 kts | 334° |
| 2026-05-07 21:42 | 40.90676 | 29.31766 | 311 ft | 3 kts | 334° |
| 2026-05-07 21:42 | 40.90652 | 29.31780 | 311 ft | 4 kts | 337° |
| 2026-05-07 21:43 | 40.90627 | 29.31793 | 311 ft | 4 kts | 343° |
| 2026-05-07 21:43 | 40.90601 | 29.31801 | 311 ft | 4 kts | 2° |
| 2026-05-07 21:43 | 40.90580 | 29.31793 | 310 ft | 2 kts | 59° |
| 2026-05-07 21:43 | 40.90579 | 29.31791 | 311 ft | 0 kts | 62° |
| 2026-05-07 21:45 | 40.90579 | 29.31792 | 310 ft | 1 kts | 62° |
| 2026-05-07 21:45 | 40.90586 | 29.31808 | 311 ft | 4 kts | 63° |
| 2026-05-07 21:46 | 40.90603 | 29.31855 | 311 ft | 7 kts | 64° |
| 2026-05-07 21:46 | 40.90626 | 29.31918 | 310 ft | 8 kts | 64° |
| 2026-05-07 21:46 | 40.90652 | 29.31987 | 310 ft | 9 kts | 64° |
| 2026-05-07 21:46 | 40.90682 | 29.32072 | 311 ft | 13 kts | 64° |
| 2026-05-07 21:47 | 40.90725 | 29.32186 | 311 ft | 14 kts | 64° |
| 2026-05-07 21:47 | 40.90692 | 29.32289 | 310 ft | 14 kts | 150° |
| 2026-05-07 21:47 | 40.90612 | 29.32357 | 311 ft | 14 kts | 118° |
| 2026-05-07 21:47 | 40.90547 | 29.32442 | 310 ft | 14 kts | 154° |
| 2026-05-07 21:48 | 40.90462 | 29.32495 | 312 ft | 13 kts | 154° |
| 2026-05-07 21:48 | 40.90380 | 29.32549 | 310 ft | 15 kts | 154° |
| 2026-05-07 21:48 | 40.90284 | 29.32566 | 310 ft | 15 kts | 217° |
| 2026-05-07 21:48 | 40.90233 | 29.32445 | 311 ft | 15 kts | 244° |
| 2026-05-07 21:49 | 40.90189 | 29.32324 | 311 ft | 15 kts | 244° |
| 2026-05-07 21:49 | 40.90143 | 29.32200 | 310 ft | 15 kts | 244° |
| 2026-05-07 21:49 | 40.90097 | 29.32072 | 309 ft | 16 kts | 244° |
| 2026-05-07 21:49 | 40.90034 | 29.31960 | 311 ft | 15 kts | 203° |
| 2026-05-07 21:50 | 40.89939 | 29.32008 | 311 ft | 15 kts | 153° |
| 2026-05-07 21:50 | 40.89841 | 29.32070 | 311 ft | 17 kts | 154° |
| 2026-05-07 21:50 | 40.89735 | 29.32139 | 307 ft | 17 kts | 154° |
| 2026-05-07 21:50 | 40.89619 | 29.32213 | 303 ft | 15 kts | 154° |
| 2026-05-07 21:51 | 40.89555 | 29.32302 | 303 ft | 14 kts | 97° |
| 2026-05-07 21:51 | 40.89499 | 29.32400 | 304 ft | 14 kts | 112° |
| 2026-05-07 21:51 | 40.89526 | 29.32519 | 301 ft | 14 kts | 64° |
| 2026-05-07 21:51 | 40.89572 | 29.32642 | 301 ft | 16 kts | 64° |
| 2026-05-07 21:52 | 40.89623 | 29.32781 | 298 ft | 18 kts | 64° |
| 2026-05-07 21:52 | 40.89683 | 29.32944 | 294 ft | 20 kts | 64° |
| 2026-05-07 21:52 | 40.89744 | 29.33108 | 291 ft | 18 kts | 64° |
| 2026-05-07 21:52 | 40.89799 | 29.33258 | 295 ft | 18 kts | 64° |
| 2026-05-07 21:53 | 40.89849 | 29.33394 | 297 ft | 15 kts | 64° |
| 2026-05-07 21:53 | 40.89888 | 29.33500 | 300 ft | 11 kts | 64° |
| 2026-05-07 21:53 | 40.89915 | 29.33575 | 305 ft | 7 kts | 64° |
| 2026-05-07 21:53 | 40.89941 | 29.33644 | 308 ft | 10 kts | 64° |
| 2026-05-07 21:54 | 40.89982 | 29.33755 | 312 ft | 15 kts | 64° |
| 2026-05-07 21:54 | 40.90017 | 29.33873 | 317 ft | 12 kts | 90° |
| 2026-05-07 21:54 | 40.89963 | 29.33942 | 317 ft | 11 kts | 154° |
| 2026-05-07 21:54 | 40.89889 | 29.33985 | 317 ft | 12 kts | 169° |
| 2026-05-07 21:55 | 40.89828 | 29.33905 | 312 ft | 16 kts | 244° |
| 2026-05-07 21:55 | 40.89822 | 29.33889 | 310 ft | 0 kts | 244° |
| 2026-05-07 21:58 | 40.89822 | 29.33888 | 310 ft | 3 kts | 244° |
| 2026-05-07 21:58 | 40.89701 | 29.33559 | 295 ft | 77 kts | 244° |
| 2026-05-07 21:58 | 40.89375 | 29.32674 | 302 ft | 135 kts | 244° |
| 2026-05-07 21:58 | 40.88885 | 29.31355 | 306 ft | 181 kts | 243° |
| 2026-05-07 21:59 | 40.88311 | 29.29819 | 764 ft | 189 kts | 243° |
| 2026-05-07 21:59 | 40.87521 | 29.28409 | 1406 ft | 192 kts | 216° |
| 2026-05-07 21:59 | 40.86360 | 29.27461 | 1686 ft | 209 kts | 210° |
| 2026-05-07 21:59 | 40.85020 | 29.26464 | 1829 ft | 234 kts | 209° |
| 2026-05-07 22:00 | 40.83643 | 29.25155 | 2098 ft | 253 kts | 229° |
| 2026-05-07 22:00 | 40.82834 | 29.23090 | 2669 ft | 259 kts | 259° |
| 2026-05-07 22:00 | 40.82923 | 29.20727 | 3320 ft | 262 kts | 289° |
| 2026-05-07 22:00 | 40.83891 | 29.18689 | 3992 ft | 265 kts | 309° |
| 2026-05-07 22:01 | 40.85092 | 29.16832 | 4724 ft | 266 kts | 310° |
| 2026-05-07 22:01 | 40.86302 | 29.14977 | 5417 ft | 268 kts | 309° |
| 2026-05-07 22:01 | 40.87521 | 29.13102 | 6142 ft | 270 kts | 309° |
| 2026-05-07 22:01 | 40.88741 | 29.11212 | 6855 ft | 271 kts | 309° |
| 2026-05-07 22:02 | 40.89967 | 29.09308 | 7511 ft | 273 kts | 309° |
| 2026-05-07 22:02 | 40.91199 | 29.07384 | 8163 ft | 276 kts | 309° |
| 2026-05-07 22:02 | 40.92444 | 29.05434 | 8793 ft | 278 kts | 309° |
| 2026-05-07 22:02 | 40.93696 | 29.03474 | 9425 ft | 280 kts | 309° |
| 2026-05-07 22:03 | 40.94957 | 29.01504 | 10048 ft | 282 kts | 309° |
| 2026-05-07 22:03 | 40.96249 | 28.99484 | 10348 ft | 298 kts | 309° |
| 2026-05-07 22:03 | 40.97626 | 28.97325 | 10488 ft | 317 kts | 309° |
| 2026-05-07 22:03 | 40.99089 | 28.95029 | 10617 ft | 336 kts | 309° |
| 2026-05-07 22:04 | 41.00622 | 28.92622 | 10930 ft | 346 kts | 309° |
| 2026-05-07 22:04 | 41.02182 | 28.90173 | 11486 ft | 350 kts | 309° |
| 2026-05-07 22:04 | 41.03759 | 28.87693 | 12058 ft | 353 kts | 309° |
| 2026-05-07 22:04 | 41.05344 | 28.85199 | 12639 ft | 355 kts | 310° |
| 2026-05-07 22:05 | 41.06939 | 28.82686 | 13226 ft | 358 kts | 310° |
| 2026-05-07 22:05 | 41.08544 | 28.80154 | 13776 ft | 360 kts | 310° |
| 2026-05-07 22:05 | 41.10161 | 28.77604 | 14340 ft | 362 kts | 310° |
| 2026-05-07 22:05 | 41.11788 | 28.75040 | 14904 ft | 364 kts | 310° |
| 2026-05-07 22:06 | 41.13426 | 28.72460 | 15444 ft | 367 kts | 310° |
| 2026-05-07 22:06 | 41.15081 | 28.69851 | 15964 ft | 370 kts | 310° |
| 2026-05-07 22:06 | 41.16739 | 28.67234 | 16490 ft | 372 kts | 310° |
| 2026-05-07 22:06 | 41.18391 | 28.64624 | 16986 ft | 375 kts | 310° |
| 2026-05-07 22:07 | 41.20072 | 28.61960 | 17493 ft | 377 kts | 310° |
| 2026-05-07 22:07 | 41.21785 | 28.59243 | 17992 ft | 380 kts | 310° |
| 2026-05-07 22:07 | 41.23485 | 28.56544 | 18479 ft | 382 kts | 310° |
| 2026-05-07 22:07 | 41.25171 | 28.53863 | 18956 ft | 384 kts | 310° |
| 2026-05-07 22:08 | 41.26890 | 28.51124 | 19427 ft | 387 kts | 310° |
| 2026-05-07 22:08 | 41.28618 | 28.48371 | 19886 ft | 390 kts | 310° |
| 2026-05-07 22:08 | 41.30360 | 28.45594 | 20329 ft | 392 kts | 310° |
| 2026-05-07 22:08 | 41.32110 | 28.42801 | 20760 ft | 394 kts | 310° |
| 2026-05-07 22:09 | 41.33867 | 28.39994 | 21172 ft | 396 kts | 310° |
| 2026-05-07 22:09 | 41.35632 | 28.37173 | 21565 ft | 398 kts | 310° |
| 2026-05-07 22:09 | 41.37412 | 28.34328 | 21949 ft | 400 kts | 310° |
| 2026-05-07 22:09 | 41.39196 | 28.31478 | 22335 ft | 402 kts | 310° |
| 2026-05-07 22:10 | 41.40989 | 28.28609 | 22696 ft | 404 kts | 310° |
| 2026-05-07 22:10 | 41.42791 | 28.25713 | 23044 ft | 407 kts | 310° |
| 2026-05-07 22:10 | 41.44600 | 28.22804 | 23396 ft | 408 kts | 310° |
| 2026-05-07 22:10 | 41.46415 | 28.19883 | 23735 ft | 410 kts | 310° |
| 2026-05-07 22:11 | 41.48239 | 28.16946 | 24083 ft | 412 kts | 310° |
| 2026-05-07 22:11 | 41.50071 | 28.13996 | 24415 ft | 414 kts | 310° |
| 2026-05-07 22:11 | 41.51912 | 28.11030 | 24751 ft | 416 kts | 310° |
| 2026-05-07 22:11 | 41.53760 | 28.08048 | 25082 ft | 418 kts | 310° |
| 2026-05-07 22:12 | 41.55614 | 28.05058 | 25395 ft | 419 kts | 310° |
| 2026-05-07 22:12 | 41.57477 | 28.02052 | 25699 ft | 421 kts | 310° |
| 2026-05-07 22:12 | 41.59349 | 27.99029 | 25999 ft | 423 kts | 310° |
| 2026-05-07 22:12 | 41.61226 | 27.95991 | 26279 ft | 425 kts | 310° |
| 2026-05-07 22:13 | 41.63114 | 27.92931 | 26549 ft | 428 kts | 310° |
| 2026-05-07 22:13 | 41.65007 | 27.89854 | 26828 ft | 429 kts | 310° |
| 2026-05-07 22:13 | 41.66906 | 27.86766 | 27088 ft | 431 kts | 310° |
| 2026-05-07 22:13 | 41.68814 | 27.83663 | 27363 ft | 433 kts | 310° |
| 2026-05-07 22:14 | 41.70728 | 27.80549 | 27638 ft | 434 kts | 310° |
| 2026-05-07 22:14 | 41.72624 | 27.77462 | 27929 ft | 435 kts | 310° |
| 2026-05-07 22:14 | 41.74548 | 27.74327 | 28149 ft | 437 kts | 310° |
| 2026-05-07 22:14 | 41.76480 | 27.71177 | 28405 ft | 439 kts | 310° |
| 2026-05-07 22:15 | 41.78418 | 27.68011 | 28664 ft | 440 kts | 309° |
| 2026-05-07 22:15 | 41.80363 | 27.64830 | 28913 ft | 442 kts | 309° |
| 2026-05-07 22:15 | 41.82310 | 27.61634 | 29169 ft | 443 kts | 309° |
| 2026-05-07 22:15 | 41.84255 | 27.58436 | 29523 ft | 442 kts | 309° |
| 2026-05-07 22:16 | 41.86194 | 27.55243 | 29871 ft | 440 kts | 309° |
| 2026-05-07 22:16 | 41.88130 | 27.52058 | 30216 ft | 439 kts | 309° |
| 2026-05-07 22:16 | 41.90059 | 27.48887 | 30548 ft | 439 kts | 309° |
| 2026-05-07 22:16 | 41.91987 | 27.45717 | 30859 ft | 438 kts | 309° |
| 2026-05-07 22:17 | 41.93909 | 27.42553 | 31179 ft | 437 kts | 309° |
| 2026-05-07 22:17 | 41.95826 | 27.39389 | 31486 ft | 436 kts | 309° |
| 2026-05-07 22:17 | 41.97739 | 27.36228 | 31801 ft | 435 kts | 309° |
| 2026-05-07 22:17 | 41.99643 | 27.33075 | 32132 ft | 434 kts | 309° |
| 2026-05-07 22:18 | 42.01542 | 27.29931 | 32415 ft | 433 kts | 309° |
| 2026-05-07 22:18 | 42.05338 | 27.23643 | 32909 ft | 433 kts | 309° |
| 2026-05-07 22:18 | 42.07239 | 27.20508 | 33169 ft | 432 kts | 309° |
| 2026-05-07 22:19 | 42.09195 | 27.17441 | 33425 ft | 432 kts | 311° |
| 2026-05-07 22:19 | 42.11199 | 27.14437 | 33702 ft | 431 kts | 312° |
| 2026-05-07 22:19 | 42.12541 | 27.12465 | 33865 ft | 430 kts | 312° |
| 2026-05-07 22:19 | 42.15256 | 27.08495 | 34080 ft | 431 kts | 312° |
| 2026-05-07 22:20 | 42.16593 | 27.06527 | 34111 ft | 430 kts | 311° |
| 2026-05-07 22:20 | 42.21243 | 26.99566 | 34108 ft | 430 kts | 311° |
| 2026-05-07 22:21 | 42.25216 | 26.93539 | 34108 ft | 430 kts | 310° |
| 2026-05-07 22:21 | 42.29188 | 26.87509 | 34109 ft | 430 kts | 310° |
| 2026-05-07 22:22 | 42.32521 | 26.82452 | 34110 ft | 430 kts | 311° |
| 2026-05-07 22:22 | 42.36504 | 26.76417 | 34109 ft | 431 kts | 310° |
| 2026-05-07 22:23 | 42.40458 | 26.70392 | 34112 ft | 431 kts | 310° |
| 2026-05-07 22:23 | 42.44438 | 26.64314 | 34114 ft | 432 kts | 310° |
| 2026-05-07 22:24 | 42.48421 | 26.58214 | 34119 ft | 432 kts | 310° |
| 2026-05-07 22:24 | 42.52399 | 26.52118 | 34119 ft | 432 kts | 310° |
| 2026-05-07 22:25 | 42.55788 | 26.45450 | 34116 ft | 430 kts | 297° |
| 2026-05-07 22:25 | 42.58606 | 26.38284 | 34113 ft | 430 kts | 297° |
| 2026-05-07 22:26 | 42.61440 | 26.31129 | 34114 ft | 431 kts | 297° |
| 2026-05-07 22:26 | 42.64271 | 26.23960 | 34112 ft | 431 kts | 297° |
| 2026-05-07 22:27 | 42.67091 | 26.16773 | 34109 ft | 431 kts | 297° |
| 2026-05-07 22:27 | 42.69910 | 26.09566 | 34107 ft | 431 kts | 297° |
| 2026-05-07 22:28 | 42.72729 | 26.02368 | 34105 ft | 431 kts | 297° |
| 2026-05-07 22:28 | 42.75541 | 25.95159 | 34104 ft | 432 kts | 296° |
| 2026-05-07 22:29 | 42.78350 | 25.87934 | 34101 ft | 431 kts | 296° |
| 2026-05-07 22:29 | 42.81151 | 25.80715 | 34097 ft | 431 kts | 296° |
| 2026-05-07 22:30 | 42.83951 | 25.73493 | 34094 ft | 431 kts | 296° |
| 2026-05-07 22:30 | 42.86744 | 25.66261 | 34087 ft | 431 kts | 296° |
| 2026-05-07 22:31 | 42.89532 | 25.59018 | 34085 ft | 431 kts | 296° |
| 2026-05-07 22:31 | 42.92316 | 25.51766 | 34093 ft | 432 kts | 296° |
| 2026-05-07 22:32 | 42.95096 | 25.44504 | 34084 ft | 431 kts | 296° |
| 2026-05-07 22:32 | 42.97869 | 25.37240 | 34088 ft | 432 kts | 296° |
| 2026-05-07 22:33 | 43.00644 | 25.29963 | 34090 ft | 432 kts | 296° |
| 2026-05-07 22:33 | 43.03412 | 25.22670 | 34097 ft | 432 kts | 296° |
| 2026-05-07 22:34 | 43.06160 | 25.15419 | 34099 ft | 432 kts | 296° |
| 2026-05-07 22:34 | 43.08924 | 25.08120 | 34101 ft | 432 kts | 296° |
| 2026-05-07 22:35 | 43.11679 | 25.00800 | 34099 ft | 432 kts | 296° |
| 2026-05-07 22:35 | 43.14133 | 24.93302 | 34099 ft | 432 kts | 291° |
| 2026-05-07 22:36 | 43.16382 | 24.85678 | 34099 ft | 432 kts | 290° |
| 2026-05-07 22:36 | 43.18621 | 24.78049 | 34099 ft | 431 kts | 290° |
| 2026-05-07 22:37 | 43.20856 | 24.70418 | 34097 ft | 431 kts | 290° |
| 2026-05-07 22:37 | 43.23083 | 24.62789 | 34102 ft | 431 kts | 290° |
| 2026-05-07 22:38 | 43.25313 | 24.55153 | 34109 ft | 431 kts | 290° |
| 2026-05-07 22:38 | 43.27538 | 24.47514 | 34109 ft | 431 kts | 290° |
| 2026-05-07 22:39 | 43.29756 | 24.39872 | 34107 ft | 431 kts | 290° |
| 2026-05-07 22:39 | 43.31965 | 24.32206 | 34109 ft | 432 kts | 289° |
| 2026-05-07 22:40 | 43.34175 | 24.24525 | 34109 ft | 432 kts | 289° |
| 2026-05-07 22:40 | 43.36385 | 24.16833 | 34109 ft | 433 kts | 289° |
| 2026-05-07 22:41 | 43.38586 | 24.09135 | 34107 ft | 433 kts | 289° |
| 2026-05-07 22:41 | 43.40802 | 24.01428 | 34103 ft | 434 kts | 290° |
| 2026-05-07 22:42 | 43.43199 | 23.93808 | 34111 ft | 434 kts | 292° |
| 2026-05-07 22:42 | 43.45689 | 23.86238 | 34116 ft | 434 kts | 291° |
| 2026-05-07 22:43 | 43.48138 | 23.78649 | 34117 ft | 433 kts | 291° |
| 2026-05-07 22:43 | 43.50551 | 23.71037 | 34117 ft | 433 kts | 291° |
| 2026-05-07 22:44 | 43.52955 | 23.63424 | 34118 ft | 433 kts | 291° |
| 2026-05-07 22:44 | 43.55337 | 23.55859 | 34119 ft | 432 kts | 291° |
| 2026-05-07 22:45 | 43.57734 | 23.48209 | 34125 ft | 432 kts | 291° |
| 2026-05-07 22:45 | 43.60117 | 23.40604 | 34123 ft | 432 kts | 291° |
| 2026-05-07 22:46 | 43.62490 | 23.33004 | 34124 ft | 431 kts | 291° |
| 2026-05-07 22:46 | 43.64845 | 23.25447 | 34123 ft | 430 kts | 291° |
| 2026-05-07 22:47 | 43.67198 | 23.17866 | 34121 ft | 429 kts | 291° |
| 2026-05-07 22:47 | 43.69545 | 23.10288 | 34124 ft | 428 kts | 291° |
| 2026-05-07 22:48 | 43.71878 | 23.02726 | 34126 ft | 427 kts | 291° |
| 2026-05-07 22:48 | 43.74203 | 22.95173 | 34128 ft | 426 kts | 291° |
| 2026-05-07 22:49 | 43.76522 | 22.87630 | 34128 ft | 425 kts | 291° |
| 2026-05-07 22:49 | 43.78828 | 22.80095 | 34127 ft | 425 kts | 291° |
| 2026-05-07 22:50 | 43.81125 | 22.72568 | 34126 ft | 424 kts | 291° |
| 2026-05-07 22:50 | 43.83420 | 22.65044 | 34124 ft | 424 kts | 291° |
| 2026-05-07 22:51 | 43.85709 | 22.57502 | 34123 ft | 423 kts | 291° |
| 2026-05-07 22:51 | 43.87963 | 22.50037 | 34120 ft | 423 kts | 291° |
| 2026-05-07 22:52 | 43.90227 | 22.42519 | 34115 ft | 422 kts | 292° |
| 2026-05-07 22:52 | 43.93414 | 22.35679 | 34113 ft | 426 kts | 308° |
| 2026-05-07 22:53 | 43.97283 | 22.29459 | 34112 ft | 426 kts | 308° |
| 2026-05-07 22:53 | 44.01128 | 22.23200 | 34100 ft | 425 kts | 308° |
| 2026-05-07 22:54 | 44.04968 | 22.16946 | 34101 ft | 426 kts | 308° |
| 2026-05-07 22:54 | 44.08813 | 22.10690 | 34101 ft | 426 kts | 308° |
| 2026-05-07 22:55 | 44.12657 | 22.04423 | 34100 ft | 425 kts | 308° |
| 2026-05-07 22:55 | 44.16488 | 21.98148 | 34099 ft | 425 kts | 308° |
| 2026-05-07 22:56 | 44.20313 | 21.91860 | 34099 ft | 425 kts | 308° |
| 2026-05-07 22:56 | 44.24146 | 21.85562 | 34102 ft | 426 kts | 308° |
| 2026-05-07 22:57 | 44.27982 | 21.79253 | 34100 ft | 427 kts | 307° |
| 2026-05-07 22:57 | 44.31816 | 21.72928 | 34098 ft | 427 kts | 307° |
| 2026-05-07 22:58 | 44.35629 | 21.66620 | 34098 ft | 427 kts | 307° |
| 2026-05-07 22:58 | 44.39459 | 21.60264 | 34096 ft | 428 kts | 307° |
| 2026-05-07 22:59 | 44.43295 | 21.53891 | 34090 ft | 428 kts | 307° |
| 2026-05-07 22:59 | 44.47126 | 21.47512 | 34084 ft | 428 kts | 307° |
| 2026-05-07 23:00 | 44.50964 | 21.41112 | 34079 ft | 429 kts | 307° |
| 2026-05-07 23:00 | 44.54803 | 21.34704 | 34077 ft | 429 kts | 307° |
| 2026-05-07 23:01 | 44.58629 | 21.28270 | 34071 ft | 430 kts | 306° |
| 2026-05-07 23:01 | 44.62457 | 21.21824 | 34076 ft | 431 kts | 307° |
| 2026-05-07 23:02 | 44.66299 | 21.15352 | 34072 ft | 432 kts | 306° |
| 2026-05-07 23:02 | 44.70141 | 21.08862 | 34078 ft | 432 kts | 306° |
| 2026-05-07 23:03 | 44.73985 | 21.02357 | 34084 ft | 432 kts | 306° |
| 2026-05-07 23:03 | 44.77823 | 20.95848 | 34076 ft | 433 kts | 306° |
| 2026-05-07 23:04 | 44.81660 | 20.89317 | 34079 ft | 433 kts | 306° |
| 2026-05-07 23:04 | 44.85506 | 20.82780 | 34080 ft | 433 kts | 306° |
| 2026-05-07 23:05 | 44.89348 | 20.76234 | 34080 ft | 433 kts | 306° |
| 2026-05-07 23:05 | 44.92530 | 20.70780 | 34079 ft | 434 kts | 306° |
| 2026-05-07 23:06 | 44.96368 | 20.64199 | 34076 ft | 434 kts | 306° |
| 2026-05-07 23:06 | 45.00823 | 20.56541 | 34082 ft | 434 kts | 305° |
| 2026-05-07 23:07 | 45.04649 | 20.49937 | 34087 ft | 434 kts | 305° |
| 2026-05-07 23:07 | 45.07860 | 20.44395 | 34096 ft | 435 kts | 305° |
| 2026-05-07 23:08 | 45.11682 | 20.37764 | 34097 ft | 435 kts | 305° |
| 2026-05-07 23:08 | 45.15506 | 20.31117 | 34097 ft | 435 kts | 305° |
| 2026-05-07 23:09 | 45.19309 | 20.24506 | 34097 ft | 436 kts | 305° |
| 2026-05-07 23:09 | 45.23140 | 20.17844 | 34097 ft | 435 kts | 305° |
| 2026-05-07 23:10 | 45.26956 | 20.11182 | 34090 ft | 435 kts | 305° |
| 2026-05-07 23:10 | 45.30772 | 20.04508 | 34090 ft | 435 kts | 305° |
| 2026-05-07 23:11 | 45.34585 | 19.97811 | 34092 ft | 436 kts | 304° |
| 2026-05-07 23:11 | 45.38392 | 19.91098 | 34096 ft | 435 kts | 304° |
| 2026-05-07 23:12 | 45.42188 | 19.84391 | 34095 ft | 435 kts | 304° |
| 2026-05-07 23:12 | 45.45987 | 19.77674 | 34096 ft | 435 kts | 304° |
| 2026-05-07 23:13 | 45.49786 | 19.70953 | 34096 ft | 435 kts | 304° |
| 2026-05-07 23:13 | 45.53552 | 19.64263 | 34086 ft | 435 kts | 304° |
| 2026-05-07 23:14 | 45.57341 | 19.57522 | 34091 ft | 435 kts | 304° |
| 2026-05-07 23:14 | 45.61124 | 19.50776 | 34085 ft | 435 kts | 304° |
| 2026-05-07 23:15 | 45.64894 | 19.44027 | 34081 ft | 434 kts | 304° |
| 2026-05-07 23:15 | 45.68656 | 19.37272 | 34079 ft | 434 kts | 304° |
| 2026-05-07 23:16 | 45.72418 | 19.30508 | 34085 ft | 434 kts | 304° |
| 2026-05-07 23:16 | 45.76178 | 19.23739 | 34084 ft | 434 kts | 304° |
| 2026-05-07 23:17 | 45.79920 | 19.16965 | 34086 ft | 433 kts | 303° |
| 2026-05-07 23:17 | 45.83667 | 19.10187 | 34083 ft | 433 kts | 304° |
| 2026-05-07 23:18 | 45.87398 | 19.03413 | 34090 ft | 432 kts | 303° |
| 2026-05-07 23:18 | 45.91119 | 18.96635 | 34092 ft | 432 kts | 303° |
| 2026-05-07 23:19 | 45.94532 | 18.89605 | 34088 ft | 427 kts | 296° |
| 2026-05-07 23:19 | 45.97547 | 18.82262 | 34105 ft | 427 kts | 296° |
| 2026-05-07 23:20 | 46.00574 | 18.74908 | 34099 ft | 427 kts | 296° |
| 2026-05-07 23:20 | 46.03615 | 18.67546 | 34081 ft | 428 kts | 296° |
| 2026-05-07 23:21 | 46.06648 | 18.60158 | 34084 ft | 429 kts | 295° |
| 2026-05-07 23:21 | 46.09674 | 18.52750 | 34088 ft | 429 kts | 295° |
| 2026-05-07 23:22 | 46.12679 | 18.45375 | 34099 ft | 430 kts | 295° |
| 2026-05-07 23:22 | 46.15697 | 18.37946 | 34103 ft | 429 kts | 295° |
| 2026-05-07 23:23 | 46.18705 | 18.30508 | 34105 ft | 429 kts | 295° |
| 2026-05-07 23:23 | 46.21709 | 18.23077 | 34103 ft | 428 kts | 295° |
| 2026-05-07 23:24 | 46.24715 | 18.15645 | 34103 ft | 428 kts | 295° |
| 2026-05-07 23:24 | 46.27708 | 18.08196 | 34103 ft | 428 kts | 295° |
| 2026-05-07 23:25 | 46.30692 | 18.00743 | 34102 ft | 428 kts | 295° |
| 2026-05-07 23:25 | 46.33670 | 17.93289 | 34099 ft | 427 kts | 295° |
| 2026-05-07 23:26 | 46.36645 | 17.85837 | 34097 ft | 427 kts | 295° |
| 2026-05-07 23:26 | 46.39606 | 17.78380 | 34091 ft | 427 kts | 295° |
| 2026-05-07 23:27 | 46.44043 | 17.67183 | 34090 ft | 427 kts | 295° |
| 2026-05-07 23:27 | 46.47001 | 17.59704 | 34083 ft | 427 kts | 295° |
| 2026-05-07 23:28 | 46.49933 | 17.52272 | 34081 ft | 427 kts | 295° |
| 2026-05-07 23:28 | 46.52885 | 17.44774 | 34079 ft | 427 kts | 294° |
| 2026-05-07 23:29 | 46.55824 | 17.37265 | 34075 ft | 427 kts | 294° |
| 2026-05-07 23:29 | 46.58752 | 17.29764 | 34075 ft | 427 kts | 294° |
| 2026-05-07 23:30 | 46.61685 | 17.22243 | 34071 ft | 427 kts | 294° |
| 2026-05-07 23:30 | 46.64608 | 17.14730 | 34073 ft | 427 kts | 294° |
| 2026-05-07 23:31 | 46.67505 | 17.07251 | 34071 ft | 426 kts | 294° |
| 2026-05-07 23:31 | 46.70420 | 16.99705 | 34073 ft | 426 kts | 294° |
| 2026-05-07 23:32 | 46.73322 | 16.92172 | 34072 ft | 426 kts | 294° |
| 2026-05-07 23:32 | 46.76220 | 16.84626 | 34073 ft | 426 kts | 294° |
| 2026-05-07 23:33 | 46.79096 | 16.77134 | 34074 ft | 426 kts | 294° |
| 2026-05-07 23:33 | 46.81980 | 16.69585 | 34077 ft | 425 kts | 294° |
| 2026-05-07 23:34 | 46.84845 | 16.62040 | 34079 ft | 425 kts | 293° |
| 2026-05-07 23:34 | 46.87711 | 16.54491 | 34082 ft | 425 kts | 293° |
| 2026-05-07 23:35 | 46.90573 | 16.46940 | 34085 ft | 424 kts | 293° |
| 2026-05-07 23:35 | 46.93432 | 16.39383 | 34096 ft | 424 kts | 293° |
| 2026-05-07 23:36 | 46.96282 | 16.31818 | 34096 ft | 424 kts | 293° |
| 2026-05-07 23:36 | 46.99121 | 16.24241 | 34096 ft | 425 kts | 293° |
| 2026-05-07 23:37 | 47.01828 | 16.16565 | 34097 ft | 422 kts | 290° |
| 2026-05-07 23:37 | 47.04298 | 16.08773 | 34094 ft | 422 kts | 289° |
| 2026-05-07 23:38 | 47.06723 | 16.01001 | 34087 ft | 422 kts | 289° |
| 2026-05-07 23:38 | 47.09205 | 15.93198 | 34098 ft | 422 kts | 290° |
| 2026-05-07 23:39 | 47.11702 | 15.85417 | 34098 ft | 421 kts | 290° |
| 2026-05-07 23:39 | 47.14191 | 15.77623 | 34099 ft | 421 kts | 290° |
| 2026-05-07 23:40 | 47.16674 | 15.69814 | 34100 ft | 422 kts | 290° |
| 2026-05-07 23:40 | 47.19159 | 15.61987 | 34099 ft | 422 kts | 290° |
| 2026-05-07 23:41 | 47.21627 | 15.54175 | 34099 ft | 421 kts | 289° |
| 2026-05-07 23:41 | 47.24087 | 15.46348 | 34099 ft | 421 kts | 289° |
| 2026-05-07 23:42 | 47.26528 | 15.38561 | 34098 ft | 421 kts | 290° |
| 2026-05-07 23:42 | 47.28996 | 15.30676 | 34102 ft | 421 kts | 289° |
| 2026-05-07 23:43 | 47.31426 | 15.22886 | 34106 ft | 421 kts | 289° |
| 2026-05-07 23:43 | 47.33864 | 15.15038 | 34113 ft | 421 kts | 289° |
| 2026-05-07 23:44 | 47.36296 | 15.07192 | 34117 ft | 421 kts | 290° |
| 2026-05-07 23:44 | 47.38862 | 14.99429 | 34114 ft | 424 kts | 297° |
| 2026-05-07 23:45 | 47.42088 | 14.92112 | 34117 ft | 425 kts | 298° |
| 2026-05-07 23:45 | 47.45307 | 14.84784 | 34122 ft | 425 kts | 298° |
| 2026-05-07 23:46 | 47.48519 | 14.77453 | 34125 ft | 425 kts | 298° |
| 2026-05-07 23:46 | 47.51726 | 14.70122 | 34123 ft | 425 kts | 298° |
| 2026-05-07 23:47 | 47.54921 | 14.62777 | 34126 ft | 425 kts | 298° |
| 2026-05-07 23:47 | 47.58123 | 14.55404 | 34125 ft | 425 kts | 298° |
| 2026-05-07 23:48 | 47.61314 | 14.48039 | 34122 ft | 425 kts | 298° |
| 2026-05-07 23:48 | 47.64481 | 14.40711 | 34121 ft | 425 kts | 298° |
| 2026-05-07 23:49 | 47.67664 | 14.33313 | 34120 ft | 425 kts | 298° |
| 2026-05-07 23:49 | 47.70847 | 14.25909 | 34119 ft | 425 kts | 298° |
| 2026-05-07 23:50 | 47.74031 | 14.18499 | 34123 ft | 426 kts | 298° |
| 2026-05-07 23:50 | 47.77205 | 14.11075 | 34110 ft | 425 kts | 298° |
| 2026-05-07 23:51 | 47.79785 | 14.04855 | 34110 ft | 424 kts | 297° |
| 2026-05-07 23:51 | 47.82850 | 13.97332 | 34108 ft | 425 kts | 297° |
| 2026-05-07 23:52 | 47.85915 | 13.89804 | 34111 ft | 425 kts | 297° |
| 2026-05-07 23:52 | 47.88986 | 13.82280 | 34110 ft | 425 kts | 297° |
| 2026-05-07 23:53 | 47.92053 | 13.74747 | 34117 ft | 425 kts | 297° |
| 2026-05-07 23:53 | 47.95120 | 13.67204 | 34123 ft | 425 kts | 297° |
| 2026-05-07 23:54 | 47.98184 | 13.59649 | 34126 ft | 425 kts | 297° |
| 2026-05-07 23:54 | 48.01236 | 13.52087 | 34127 ft | 425 kts | 297° |
| 2026-05-07 23:55 | 48.04285 | 13.44525 | 34121 ft | 425 kts | 297° |
| 2026-05-07 23:55 | 48.07332 | 13.36948 | 34121 ft | 425 kts | 297° |
| 2026-05-07 23:56 | 48.10368 | 13.29361 | 34122 ft | 425 kts | 297° |
| 2026-05-07 23:56 | 48.13408 | 13.21761 | 34124 ft | 425 kts | 297° |
| 2026-05-07 23:57 | 48.16423 | 13.14202 | 34125 ft | 425 kts | 297° |
| 2026-05-07 23:57 | 48.19443 | 13.06594 | 34125 ft | 424 kts | 297° |
| 2026-05-07 23:58 | 48.22453 | 12.98983 | 34126 ft | 424 kts | 297° |
| 2026-05-07 23:58 | 48.25463 | 12.91366 | 34126 ft | 424 kts | 297° |
| 2026-05-07 23:59 | 48.28464 | 12.83748 | 34123 ft | 424 kts | 297° |
| 2026-05-07 23:59 | 48.31461 | 12.76117 | 34124 ft | 424 kts | 297° |
| 2026-05-08 00:00 | 48.34448 | 12.68488 | 34121 ft | 423 kts | 297° |
| 2026-05-08 00:00 | 48.37424 | 12.60858 | 34120 ft | 422 kts | 297° |
| 2026-05-08 00:01 | 48.40384 | 12.53246 | 34118 ft | 421 kts | 297° |
| 2026-05-08 00:01 | 48.43319 | 12.45685 | 34117 ft | 421 kts | 297° |
| 2026-05-08 00:02 | 48.46273 | 12.38062 | 34117 ft | 421 kts | 297° |
| 2026-05-08 00:02 | 48.49222 | 12.30434 | 34115 ft | 421 kts | 297° |
| 2026-05-08 00:03 | 48.52158 | 12.22804 | 34111 ft | 420 kts | 297° |
| 2026-05-08 00:03 | 48.55085 | 12.15176 | 34109 ft | 420 kts | 297° |
| 2026-05-08 00:04 | 48.58005 | 12.07544 | 34109 ft | 420 kts | 296° |
| 2026-05-08 00:04 | 48.60925 | 11.99902 | 34105 ft | 420 kts | 297° |
| 2026-05-08 00:05 | 48.63844 | 11.92244 | 34109 ft | 420 kts | 297° |
| 2026-05-08 00:05 | 48.66753 | 11.84574 | 34109 ft | 420 kts | 297° |
| 2026-05-08 00:06 | 48.69642 | 11.76941 | 34100 ft | 414 kts | 297° |
| 2026-05-08 00:06 | 48.72470 | 11.69441 | 34109 ft | 413 kts | 297° |
| 2026-05-08 00:07 | 48.75311 | 11.61859 | 34109 ft | 413 kts | 297° |
| 2026-05-08 00:07 | 48.78154 | 11.54280 | 34110 ft | 413 kts | 297° |
| 2026-05-08 00:08 | 48.81000 | 11.46691 | 34111 ft | 414 kts | 297° |
| 2026-05-08 00:08 | 48.83837 | 11.39092 | 34110 ft | 414 kts | 297° |
| 2026-05-08 00:09 | 48.86671 | 11.31472 | 34106 ft | 414 kts | 297° |
| 2026-05-08 00:09 | 48.89474 | 11.23899 | 34105 ft | 414 kts | 297° |
| 2026-05-08 00:10 | 48.92298 | 11.16257 | 34103 ft | 414 kts | 297° |
| 2026-05-08 00:10 | 48.95128 | 11.08613 | 34103 ft | 415 kts | 299° |
| 2026-05-08 00:11 | 48.98863 | 11.01845 | 34090 ft | 422 kts | 314° |
| 2026-05-08 00:11 | 49.03194 | 10.95782 | 34089 ft | 424 kts | 314° |
| 2026-05-08 00:12 | 49.05363 | 10.92737 | 33574 ft | 425 kts | 314° |
| 2026-05-08 00:12 | 49.07566 | 10.89635 | 32311 ft | 436 kts | 314° |
| 2026-05-08 00:12 | 49.09795 | 10.86496 | 31400 ft | 437 kts | 315° |
| 2026-05-08 00:12 | 49.12027 | 10.83355 | 30597 ft | 435 kts | 315° |
| 2026-05-08 00:13 | 49.14240 | 10.80233 | 29889 ft | 431 kts | 315° |
| 2026-05-08 00:13 | 49.16428 | 10.77132 | 29216 ft | 427 kts | 315° |
| 2026-05-08 00:13 | 49.18597 | 10.74048 | 28492 ft | 423 kts | 315° |
| 2026-05-08 00:13 | 49.20729 | 10.70972 | 27813 ft | 418 kts | 314° |
| 2026-05-08 00:14 | 49.22764 | 10.67878 | 27325 ft | 408 kts | 313° |
| 2026-05-08 00:14 | 49.24723 | 10.64785 | 26834 ft | 400 kts | 312° |
| 2026-05-08 00:14 | 49.26621 | 10.61729 | 26357 ft | 392 kts | 311° |
| 2026-05-08 00:14 | 49.28464 | 10.58751 | 25898 ft | 388 kts | 312° |
| 2026-05-08 00:15 | 49.30320 | 10.55764 | 25453 ft | 385 kts | 312° |
| 2026-05-08 00:15 | 49.32163 | 10.52812 | 25007 ft | 382 kts | 312° |
| 2026-05-08 00:15 | 49.34002 | 10.49884 | 24569 ft | 380 kts | 312° |
| 2026-05-08 00:15 | 49.35815 | 10.46965 | 24183 ft | 376 kts | 309° |
| 2026-05-08 00:16 | 49.37385 | 10.43755 | 24061 ft | 378 kts | 304° |
| 2026-05-08 00:16 | 49.38902 | 10.40439 | 23981 ft | 380 kts | 304° |
| 2026-05-08 00:16 | 49.40422 | 10.37116 | 23795 ft | 380 kts | 304° |
| 2026-05-08 00:16 | 49.41936 | 10.33803 | 23550 ft | 378 kts | 304° |
| 2026-05-08 00:17 | 49.43444 | 10.30503 | 23299 ft | 377 kts | 304° |
| 2026-05-08 00:17 | 49.44947 | 10.27207 | 23050 ft | 375 kts | 304° |
| 2026-05-08 00:17 | 49.46441 | 10.23924 | 22797 ft | 374 kts | 304° |
| 2026-05-08 00:17 | 49.47927 | 10.20649 | 22548 ft | 373 kts | 304° |
| 2026-05-08 00:18 | 49.49409 | 10.17379 | 22298 ft | 372 kts | 304° |
| 2026-05-08 00:18 | 49.50885 | 10.14116 | 22048 ft | 370 kts | 304° |
| 2026-05-08 00:18 | 49.52351 | 10.10871 | 21798 ft | 369 kts | 304° |
| 2026-05-08 00:18 | 49.53814 | 10.07626 | 21553 ft | 367 kts | 303° |
| 2026-05-08 00:19 | 49.55266 | 10.04403 | 21301 ft | 366 kts | 304° |
| 2026-05-08 00:19 | 49.56718 | 10.01189 | 21046 ft | 364 kts | 304° |
| 2026-05-08 00:19 | 49.58162 | 9.97991 | 20790 ft | 363 kts | 304° |
| 2026-05-08 00:19 | 49.59601 | 9.94795 | 20546 ft | 362 kts | 304° |
| 2026-05-08 00:20 | 49.61033 | 9.91603 | 20297 ft | 361 kts | 304° |
| 2026-05-08 00:20 | 49.62458 | 9.88419 | 20048 ft | 360 kts | 304° |
| 2026-05-08 00:20 | 49.63879 | 9.85243 | 19796 ft | 358 kts | 303° |
| 2026-05-08 00:20 | 49.65294 | 9.82078 | 19546 ft | 357 kts | 303° |
| 2026-05-08 00:21 | 49.66700 | 9.78928 | 19294 ft | 356 kts | 304° |
| 2026-05-08 00:21 | 49.68102 | 9.75788 | 19040 ft | 354 kts | 303° |
| 2026-05-08 00:21 | 49.69479 | 9.72702 | 18798 ft | 353 kts | 303° |
| 2026-05-08 00:21 | 49.70887 | 9.69546 | 18541 ft | 351 kts | 303° |
| 2026-05-08 00:22 | 49.72252 | 9.66475 | 18298 ft | 350 kts | 303° |
| 2026-05-08 00:22 | 49.73626 | 9.63383 | 18048 ft | 349 kts | 303° |
| 2026-05-08 00:22 | 49.75000 | 9.60290 | 17725 ft | 348 kts | 303° |
| 2026-05-08 00:22 | 49.76363 | 9.57218 | 17286 ft | 345 kts | 303° |
| 2026-05-08 00:23 | 49.77715 | 9.54169 | 16851 ft | 343 kts | 303° |
| 2026-05-08 00:23 | 49.79056 | 9.51138 | 16420 ft | 340 kts | 303° |
| 2026-05-08 00:23 | 49.80384 | 9.48129 | 15990 ft | 338 kts | 303° |
| 2026-05-08 00:23 | 49.81703 | 9.45133 | 15553 ft | 335 kts | 303° |
| 2026-05-08 00:24 | 49.83010 | 9.42155 | 15129 ft | 333 kts | 303° |
| 2026-05-08 00:24 | 49.84307 | 9.39193 | 14721 ft | 331 kts | 303° |
| 2026-05-08 00:24 | 49.85584 | 9.36237 | 14300 ft | 328 kts | 299° |
| 2026-05-08 00:24 | 49.86551 | 9.33059 | 13911 ft | 324 kts | 288° |
| 2026-05-08 00:25 | 49.87197 | 9.29718 | 13607 ft | 324 kts | 285° |
| 2026-05-08 00:25 | 49.87833 | 9.26382 | 13280 ft | 322 kts | 285° |
| 2026-05-08 00:25 | 49.88471 | 9.23054 | 12954 ft | 321 kts | 285° |
| 2026-05-08 00:25 | 49.89108 | 9.19745 | 12635 ft | 320 kts | 285° |
| 2026-05-08 00:26 | 49.89740 | 9.16451 | 12314 ft | 318 kts | 285° |
| 2026-05-08 00:26 | 49.90366 | 9.13169 | 11984 ft | 317 kts | 285° |
| 2026-05-08 00:26 | 49.90988 | 9.09901 | 11673 ft | 315 kts | 285° |
| 2026-05-08 00:26 | 49.91606 | 9.06640 | 11356 ft | 315 kts | 285° |
| 2026-05-08 00:27 | 49.92220 | 9.03393 | 11054 ft | 314 kts | 285° |
| 2026-05-08 00:27 | 49.92836 | 9.00142 | 10940 ft | 314 kts | 285° |
| 2026-05-08 00:27 | 49.93457 | 8.96880 | 10809 ft | 314 kts | 285° |
| 2026-05-08 00:27 | 49.94079 | 8.93631 | 10657 ft | 314 kts | 286° |
| 2026-05-08 00:28 | 49.94701 | 8.90379 | 10538 ft | 314 kts | 285° |
| 2026-05-08 00:28 | 49.95310 | 8.87186 | 10395 ft | 303 kts | 286° |
| 2026-05-08 00:28 | 49.95895 | 8.84111 | 10260 ft | 291 kts | 285° |
| 2026-05-08 00:28 | 49.96458 | 8.81143 | 10032 ft | 281 kts | 285° |
| 2026-05-08 00:29 | 49.97010 | 8.78226 | 9974 ft | 283 kts | 285° |
| 2026-05-08 00:29 | 49.97564 | 8.75290 | 9897 ft | 283 kts | 285° |
| 2026-05-08 00:29 | 49.97863 | 8.72280 | 9782 ft | 282 kts | 270° |
| 2026-05-08 00:29 | 49.97627 | 8.69262 | 9659 ft | 282 kts | 255° |
| 2026-05-08 00:30 | 49.96972 | 8.66391 | 9542 ft | 282 kts | 249° |
| 2026-05-08 00:30 | 49.96281 | 8.63541 | 9416 ft | 282 kts | 249° |
| 2026-05-08 00:30 | 49.95593 | 8.60691 | 9292 ft | 282 kts | 249° |
| 2026-05-08 00:30 | 49.94903 | 8.57829 | 9171 ft | 282 kts | 249° |
| 2026-05-08 00:31 | 49.94225 | 8.55014 | 9049 ft | 282 kts | 249° |
| 2026-05-08 00:31 | 49.93543 | 8.52179 | 8924 ft | 282 kts | 249° |
| 2026-05-08 00:31 | 49.92854 | 8.49322 | 8806 ft | 282 kts | 249° |
| 2026-05-08 00:31 | 49.92168 | 8.46473 | 8683 ft | 281 kts | 249° |
| 2026-05-08 00:32 | 49.91483 | 8.43630 | 8550 ft | 281 kts | 249° |
| 2026-05-08 00:32 | 49.90799 | 8.40798 | 8441 ft | 280 kts | 249° |
| 2026-05-08 00:32 | 49.90114 | 8.37971 | 8316 ft | 280 kts | 249° |
| 2026-05-08 00:32 | 49.89430 | 8.35151 | 8190 ft | 279 kts | 249° |
| 2026-05-08 00:33 | 49.88748 | 8.32334 | 8079 ft | 279 kts | 249° |
| 2026-05-08 00:33 | 49.88068 | 8.29525 | 7971 ft | 278 kts | 249° |
| 2026-05-08 00:33 | 49.87386 | 8.26722 | 7831 ft | 277 kts | 249° |
| 2026-05-08 00:33 | 49.86702 | 8.23923 | 7723 ft | 277 kts | 249° |
| 2026-05-08 00:34 | 49.86025 | 8.21141 | 7599 ft | 276 kts | 249° |
| 2026-05-08 00:34 | 49.85352 | 8.18374 | 7397 ft | 270 kts | 249° |
| 2026-05-08 00:34 | 49.84703 | 8.15699 | 7268 ft | 259 kts | 249° |
| 2026-05-08 00:34 | 49.84079 | 8.13134 | 7134 ft | 249 kts | 249° |
| 2026-05-08 00:35 | 49.83475 | 8.10670 | 7011 ft | 239 kts | 249° |
| 2026-05-08 00:35 | 49.83084 | 8.09075 | 6950 ft | 230 kts | 249° |
| 2026-05-08 00:35 | 49.82337 | 8.06036 | 6536 ft | 227 kts | 249° |
| 2026-05-08 00:35 | 49.81958 | 8.04492 | 6305 ft | 225 kts | 249° |
| 2026-05-08 00:36 | 49.81641 | 8.02176 | 5948 ft | 224 kts | 274° |
| 2026-05-08 00:36 | 49.82164 | 7.99938 | 5599 ft | 224 kts | 307° |
| 2026-05-08 00:36 | 49.83396 | 7.98497 | 5212 ft | 224 kts | 335° |
| 2026-05-08 00:36 | 49.84844 | 7.97595 | 4999 ft | 224 kts | 338° |
| 2026-05-08 00:37 | 49.86327 | 7.96772 | 4994 ft | 228 kts | 347° |
| 2026-05-08 00:37 | 49.87887 | 7.96913 | 4995 ft | 228 kts | 21° |
| 2026-05-08 00:37 | 49.89209 | 7.98248 | 5009 ft | 228 kts | 41° |
| 2026-05-08 00:38 | 49.90893 | 8.02259 | 5008 ft | 227 kts | 73° |
| 2026-05-08 00:38 | 49.91411 | 8.04581 | 5000 ft | 228 kts | 70° |
| 2026-05-08 00:38 | 49.91968 | 8.06875 | 4999 ft | 227 kts | 70° |
| 2026-05-08 00:38 | 49.92530 | 8.09165 | 5004 ft | 227 kts | 70° |
| 2026-05-08 00:39 | 49.93091 | 8.11458 | 5007 ft | 227 kts | 70° |
| 2026-05-08 00:39 | 49.93653 | 8.13756 | 5008 ft | 227 kts | 70° |
| 2026-05-08 00:39 | 49.94212 | 8.16048 | 5007 ft | 227 kts | 70° |
| 2026-05-08 00:39 | 49.94771 | 8.18339 | 4932 ft | 224 kts | 70° |
| 2026-05-08 00:40 | 49.95313 | 8.20570 | 4687 ft | 218 kts | 69° |
| 2026-05-08 00:40 | 49.95847 | 8.22761 | 4415 ft | 214 kts | 70° |
| 2026-05-08 00:40 | 49.96370 | 8.24911 | 4135 ft | 211 kts | 70° |
| 2026-05-08 00:40 | 49.96883 | 8.27023 | 3850 ft | 207 kts | 70° |
| 2026-05-08 00:41 | 49.97384 | 8.29091 | 3581 ft | 202 kts | 70° |
| 2026-05-08 00:41 | 49.97875 | 8.31119 | 3340 ft | 198 kts | 70° |
| 2026-05-08 00:41 | 49.98347 | 8.33060 | 3077 ft | 185 kts | 70° |
| 2026-05-08 00:41 | 49.98784 | 8.34868 | 2824 ft | 172 kts | 70° |
| 2026-05-08 00:42 | 49.99196 | 8.36574 | 2599 ft | 166 kts | 70° |
| 2026-05-08 00:42 | 49.99598 | 8.38241 | 2382 ft | 163 kts | 70° |
| 2026-05-08 00:42 | 49.99996 | 8.39887 | 2172 ft | 161 kts | 70° |
| 2026-05-08 00:42 | 50.00390 | 8.41524 | 1960 ft | 161 kts | 69° |
| 2026-05-08 00:43 | 50.00781 | 8.43146 | 1740 ft | 160 kts | 69° |
| 2026-05-08 00:43 | 50.01165 | 8.44742 | 1535 ft | 153 kts | 69° |
| 2026-05-08 00:43 | 50.01529 | 8.46250 | 1334 ft | 146 kts | 68° |
| 2026-05-08 00:43 | 50.01880 | 8.47710 | 1141 ft | 143 kts | 68° |
| 2026-05-08 00:44 | 50.02239 | 8.49167 | 946 ft | 142 kts | 67° |
| 2026-05-08 00:44 | 50.02590 | 8.50601 | 763 ft | 142 kts | 68° |
| 2026-05-08 00:44 | 50.02928 | 8.52044 | 568 ft | 142 kts | 69° |
| 2026-05-08 00:44 | 50.03266 | 8.53474 | 393 ft | 142 kts | 69° |
| 2026-05-08 00:45 | 50.03589 | 8.54821 | 347 ft | 116 kts | 70° |
| 2026-05-08 00:45 | 50.03810 | 8.55755 | 357 ft | 66 kts | 69° |
| 2026-05-08 00:45 | 50.03942 | 8.56302 | 356 ft | 51 kts | 70° |
| 2026-05-08 00:45 | 50.04037 | 8.56642 | 361 ft | 23 kts | 48° |
| 2026-05-08 00:46 | 50.04125 | 8.56736 | 358 ft | 8 kts | 29° |
| 2026-05-08 00:46 | 50.04172 | 8.56772 | 365 ft | 7 kts | 20° |
| 2026-05-08 00:46 | 50.04227 | 8.56791 | 363 ft | 9 kts | 11° |
| 2026-05-08 00:46 | 50.04304 | 8.56815 | 360 ft | 12 kts | 11° |
| 2026-05-08 00:47 | 50.04388 | 8.56841 | 360 ft | 14 kts | 11° |
| 2026-05-08 00:47 | 50.04493 | 8.56870 | 361 ft | 16 kts | 12° |
| 2026-05-08 00:47 | 50.04595 | 8.56907 | 356 ft | 14 kts | 13° |
| 2026-05-08 00:47 | 50.04640 | 8.56902 | 358 ft | 5 kts | 321° |
| 2026-05-08 00:48 | 50.04646 | 8.56848 | 358 ft | 6 kts | 274° |
| 2026-05-08 00:48 | 50.04651 | 8.56826 | 356 ft | 1 kts | 292° |
| 2026-05-08 00:48 | 50.04655 | 8.56812 | 364 ft | 2 kts | 292° |